sensor_id;sensor_type;location;lat;lon;timestamp;P1;durP1;ratioP1;P2;durP2;ratioP2
15816;SDS011;8009;50.070;8.232;2023-09-30T00:00:30;18.17;;;17.47;;
15816;SDS011;8009;50.070;8.232;2023-09-30T00:03:02;16.90;;;16.23;;
15816;SDS011;8009;50.070;8.232;2023-09-30T00:05:30;17.67;;;16.97;;
15816;SDS011;8009;50.070;8.232;2023-09-30T00:07:59;29.73;;;28.52;;
15816;SDS011;8009;50.070;8.232;2023-09-30T00:10:27;19.40;;;18.70;;
15816;SDS011;8009;50.070;8.232;2023-09-30T00:12:55;19.70;;;19.00;;
15816;SDS011;8009;50.070;8.232;2023-09-30T00:15:24;20.07;;;19.27;;
15816;SDS011;8009;50.070;8.232;2023-09-30T00:17:52;17.70;;;17.00;;
15816;SDS011;8009;50.070;8.232;2023-09-30T00:20:23;17.60;;;16.90;;
15816;SDS011;8009;50.070;8.232;2023-09-30T00:22:52;14.63;;;14.07;;
15816;SDS011;8009;50.070;8.232;2023-09-30T00:25:20;14.90;;;14.30;;
15816;SDS011;8009;50.070;8.232;2023-09-30T00:27:49;13.40;;;12.90;;
15816;SDS011;8009;50.070;8.232;2023-09-30T00:30:17;16.00;;;15.40;;
15816;SDS011;8009;50.070;8.232;2023-09-30T00:32:46;15.03;;;14.43;;
15816;SDS011;8009;50.070;8.232;2023-09-30T00:35:15;14.40;;;13.90;;
15816;SDS011;8009;50.070;8.232;2023-09-30T00:37:46;17.17;;;16.50;;
15816;SDS011;8009;50.070;8.232;2023-09-30T00:40:14;14.93;;;14.33;;
15816;SDS011;8009;50.070;8.232;2023-09-30T00:42:43;14.50;;;13.97;;
15816;SDS011;8009;50.070;8.232;2023-09-30T00:45:11;16.50;;;15.90;;
15816;SDS011;8009;50.070;8.232;2023-09-30T00:47:39;17.70;;;17.00;;
15816;SDS011;8009;50.070;8.232;2023-09-30T00:50:09;18.57;;;17.87;;
15816;SDS011;8009;50.070;8.232;2023-09-30T00:52:38;19.17;;;18.37;;
15816;SDS011;8009;50.070;8.232;2023-09-30T00:55:10;16.67;;;16.07;;
15816;SDS011;8009;50.070;8.232;2023-09-30T00:57:40;16.50;;;15.90;;
15816;SDS011;8009;50.070;8.232;2023-09-30T01:00:09;18.90;;;18.20;;
15816;SDS011;8009;50.070;8.232;2023-09-30T01:02:39;20.20;;;19.40;;
15816;SDS011;8009;50.070;8.232;2023-09-30T01:05:09;16.40;;;15.80;;
15816;SDS011;8009;50.070;8.232;2023-09-30T01:07:38;20.10;;;19.30;;
15816;SDS011;8009;50.070;8.232;2023-09-30T01:10:06;20.03;;;19.23;;
15816;SDS011;8009;50.070;8.232;2023-09-30T01:12:38;19.27;;;18.57;;
15816;SDS011;8009;50.070;8.232;2023-09-30T01:15:07;19.03;;;18.33;;
15816;SDS011;8009;50.070;8.232;2023-09-30T01:17:36;19.80;;;19.00;;
15816;SDS011;8009;50.070;8.232;2023-09-30T01:20:05;20.70;;;19.90;;
15816;SDS011;8009;50.070;8.232;2023-09-30T01:22:42;17.80;;;17.10;;
15816;SDS011;8009;50.070;8.232;2023-09-30T01:25:11;18.53;;;17.83;;
15816;SDS011;8009;50.070;8.232;2023-09-30T01:27:40;16.27;;;15.67;;
15816;SDS011;8009;50.070;8.232;2023-09-30T01:30:08;15.87;;;15.27;;
15816;SDS011;8009;50.070;8.232;2023-09-30T01:32:38;16.23;;;15.63;;
15816;SDS011;8009;50.070;8.232;2023-09-30T01:35:07;16.33;;;15.73;;
15816;SDS011;8009;50.070;8.232;2023-09-30T01:37:36;16.30;;;15.70;;
15816;SDS011;8009;50.070;8.232;2023-09-30T01:40:07;17.47;;;16.77;;
15816;SDS011;8009;50.070;8.232;2023-09-30T01:42:36;17.30;;;16.60;;
15816;SDS011;8009;50.070;8.232;2023-09-30T01:45:05;15.10;;;14.50;;
15816;SDS011;8009;50.070;8.232;2023-09-30T01:47:35;15.00;;;14.40;;
15816;SDS011;8009;50.070;8.232;2023-09-30T01:50:04;13.63;;;13.13;;
15816;SDS011;8009;50.070;8.232;2023-09-30T01:52:33;12.30;;;11.80;;
15816;SDS011;8009;50.070;8.232;2023-09-30T01:55:01;15.60;;;15.00;;
15816;SDS011;8009;50.070;8.232;2023-09-30T01:57:32;15.57;;;14.97;;
15816;SDS011;8009;50.070;8.232;2023-09-30T02:00:00;14.20;;;13.70;;
15816;SDS011;8009;50.070;8.232;2023-09-30T02:02:29;15.90;;;15.30;;
15816;SDS011;8009;50.070;8.232;2023-09-30T02:04:58;14.00;;;13.50;;
15816;SDS011;8009;50.070;8.232;2023-09-30T02:07:26;14.90;;;14.30;;
15816;SDS011;8009;50.070;8.232;2023-09-30T02:09:54;14.63;;;14.03;;
15816;SDS011;8009;50.070;8.232;2023-09-30T02:12:23;17.47;;;16.67;;
15816;SDS011;8009;50.070;8.232;2023-09-30T02:14:53;14.50;;;13.97;;
15816;SDS011;8009;50.070;8.232;2023-09-30T02:17:22;16.43;;;15.83;;
15816;SDS011;8009;50.070;8.232;2023-09-30T02:19:50;19.13;;;18.43;;
15816;SDS011;8009;50.070;8.232;2023-09-30T02:22:20;16.00;;;15.40;;
15816;SDS011;8009;50.070;8.232;2023-09-30T02:24:49;14.50;;;14.00;;
15816;SDS011;8009;50.070;8.232;2023-09-30T02:27:19;17.13;;;16.43;;
15816;SDS011;8009;50.070;8.232;2023-09-30T02:29:48;17.50;;;16.80;;
15816;SDS011;8009;50.070;8.232;2023-09-30T02:32:19;19.65;;;18.88;;
15816;SDS011;8009;50.070;8.232;2023-09-30T02:34:49;17.77;;;17.07;;
15816;SDS011;8009;50.070;8.232;2023-09-30T02:37:18;15.77;;;15.17;;
15816;SDS011;8009;50.070;8.232;2023-09-30T02:39:47;16.00;;;15.40;;
15816;SDS011;8009;50.070;8.232;2023-09-30T02:42:15;15.83;;;15.23;;
15816;SDS011;8009;50.070;8.232;2023-09-30T02:44:44;18.20;;;17.50;;
15816;SDS011;8009;50.070;8.232;2023-09-30T02:47:12;15.43;;;14.83;;
15816;SDS011;8009;50.070;8.232;2023-09-30T02:49:43;14.63;;;14.07;;
15816;SDS011;8009;50.070;8.232;2023-09-30T02:52:11;15.83;;;15.23;;
15816;SDS011;8009;50.070;8.232;2023-09-30T02:54:40;16.17;;;15.57;;
15816;SDS011;8009;50.070;8.232;2023-09-30T02:57:08;15.63;;;14.93;;
15816;SDS011;8009;50.070;8.232;2023-09-30T02:59:37;16.17;;;15.57;;
15816;SDS011;8009;50.070;8.232;2023-09-30T03:02:05;15.07;;;14.47;;
15816;SDS011;8009;50.070;8.232;2023-09-30T03:04:34;15.70;;;15.10;;
15816;SDS011;8009;50.070;8.232;2023-09-30T03:07:05;15.50;;;14.90;;
15816;SDS011;8009;50.070;8.232;2023-09-30T03:09:33;14.87;;;14.27;;
15816;SDS011;8009;50.070;8.232;2023-09-30T03:12:02;17.73;;;17.03;;
15816;SDS011;8009;50.070;8.232;2023-09-30T03:14:33;15.00;;;14.40;;
15816;SDS011;8009;50.070;8.232;2023-09-30T03:17:02;22.38;;;21.48;;
15816;SDS011;8009;50.070;8.232;2023-09-30T03:19:36;15.73;;;15.13;;
15816;SDS011;8009;50.070;8.232;2023-09-30T03:22:07;18.97;;;18.27;;
15816;SDS011;8009;50.070;8.232;2023-09-30T03:24:37;18.10;;;17.40;;
15816;SDS011;8009;50.070;8.232;2023-09-30T03:27:06;20.20;;;19.40;;
15816;SDS011;8009;50.070;8.232;2023-09-30T03:29:35;21.97;;;21.13;;
15816;SDS011;8009;50.070;8.232;2023-09-30T03:32:04;16.90;;;16.30;;
15816;SDS011;8009;50.070;8.232;2023-09-30T03:34:33;18.53;;;17.83;;
15816;SDS011;8009;50.070;8.232;2023-09-30T03:37:02;17.10;;;16.43;;
15816;SDS011;8009;50.070;8.232;2023-09-30T03:39:34;18.20;;;17.50;;
15816;SDS011;8009;50.070;8.232;2023-09-30T03:42:03;18.13;;;17.43;;
15816;SDS011;8009;50.070;8.232;2023-09-30T03:44:32;23.23;;;22.33;;
15816;SDS011;8009;50.070;8.232;2023-09-30T03:47:00;20.97;;;20.07;;
15816;SDS011;8009;50.070;8.232;2023-09-30T03:49:28;16.70;;;16.03;;
15816;SDS011;8009;50.070;8.232;2023-09-30T03:51:57;18.57;;;17.87;;
15816;SDS011;8009;50.070;8.232;2023-09-30T03:54:26;17.90;;;17.20;;
15816;SDS011;8009;50.070;8.232;2023-09-30T03:56:57;20.77;;;19.97;;
15816;SDS011;8009;50.070;8.232;2023-09-30T03:59:26;15.10;;;14.50;;
15816;SDS011;8009;50.070;8.232;2023-09-30T04:01:54;19.53;;;18.77;;
15816;SDS011;8009;50.070;8.232;2023-09-30T04:04:23;16.50;;;15.90;;
15816;SDS011;8009;50.070;8.232;2023-09-30T04:06:51;18.77;;;17.97;;
15816;SDS011;8009;50.070;8.232;2023-09-30T04:09:20;19.30;;;18.60;;
15816;SDS011;8009;50.070;8.232;2023-09-30T04:11:50;15.67;;;15.07;;
15816;SDS011;8009;50.070;8.232;2023-09-30T04:14:21;19.10;;;18.40;;
15816;SDS011;8009;50.070;8.232;2023-09-30T04:16:50;24.13;;;23.23;;
15816;SDS011;8009;50.070;8.232;2023-09-30T04:19:19;22.50;;;21.60;;
15816;SDS011;8009;50.070;8.232;2023-09-30T04:21:47;22.00;;;21.17;;
15816;SDS011;8009;50.070;8.232;2023-09-30T04:24:15;26.57;;;25.53;;
15816;SDS011;8009;50.070;8.232;2023-09-30T04:26:45;21.53;;;20.73;;
15816;SDS011;8009;50.070;8.232;2023-09-30T04:29:15;23.80;;;22.90;;
15816;SDS011;8009;50.070;8.232;2023-09-30T04:31:47;28.07;;;26.97;;
15816;SDS011;8009;50.070;8.232;2023-09-30T04:34:16;25.60;;;24.60;;
15816;SDS011;8009;50.070;8.232;2023-09-30T04:36:44;20.53;;;19.73;;
15816;SDS011;8009;50.070;8.232;2023-09-30T04:39:12;22.63;;;21.73;;
15816;SDS011;8009;50.070;8.232;2023-09-30T04:41:41;23.73;;;22.83;;
15816;SDS011;8009;50.070;8.232;2023-09-30T04:44:09;25.17;;;24.17;;
15816;SDS011;8009;50.070;8.232;2023-09-30T04:46:38;28.40;;;27.30;;
15816;SDS011;8009;50.070;8.232;2023-09-30T04:49:14;26.00;;;25.00;;
15816;SDS011;8009;50.070;8.232;2023-09-30T04:51:42;31.33;;;30.13;;
15816;SDS011;8009;50.070;8.232;2023-09-30T04:54:10;27.00;;;25.97;;
15816;SDS011;8009;50.070;8.232;2023-09-30T04:56:39;30.57;;;29.37;;
15816;SDS011;8009;50.070;8.232;2023-09-30T04:59:07;25.67;;;24.67;;
15816;SDS011;8009;50.070;8.232;2023-09-30T05:01:36;22.07;;;21.17;;
15816;SDS011;8009;50.070;8.232;2023-09-30T05:04:04;27.10;;;26.00;;
15816;SDS011;8009;50.070;8.232;2023-09-30T05:06:35;20.73;;;19.93;;
15816;SDS011;8009;50.070;8.232;2023-09-30T05:09:04;24.03;;;23.13;;
15816;SDS011;8009;50.070;8.232;2023-09-30T05:11:33;23.57;;;22.67;;
15816;SDS011;8009;50.070;8.232;2023-09-30T05:14:01;23.10;;;22.20;;
15816;SDS011;8009;50.070;8.232;2023-09-30T05:16:30;19.50;;;18.70;;
15816;SDS011;8009;50.070;8.232;2023-09-30T05:18:59;19.73;;;18.93;;
15816;SDS011;8009;50.070;8.232;2023-09-30T05:21:27;22.83;;;21.93;;
15816;SDS011;8009;50.070;8.232;2023-09-30T05:23:58;22.87;;;21.97;;
15816;SDS011;8009;50.070;8.232;2023-09-30T05:26:27;19.97;;;19.17;;
15816;SDS011;8009;50.070;8.232;2023-09-30T05:28:55;21.23;;;20.43;;
15816;SDS011;8009;50.070;8.232;2023-09-30T05:31:24;19.13;;;18.43;;
15816;SDS011;8009;50.070;8.232;2023-09-30T05:33:53;24.57;;;23.57;;
15816;SDS011;8009;50.070;8.232;2023-09-30T05:36:21;23.57;;;22.67;;
15816;SDS011;8009;50.070;8.232;2023-09-30T05:38:49;28.23;;;27.13;;
15816;SDS011;8009;50.070;8.232;2023-09-30T05:41:20;27.63;;;26.53;;
15816;SDS011;8009;50.070;8.232;2023-09-30T05:43:49;23.97;;;23.07;;
15816;SDS011;8009;50.070;8.232;2023-09-30T05:46:18;24.87;;;23.87;;
15816;SDS011;8009;50.070;8.232;2023-09-30T05:48:46;22.63;;;21.73;;
15816;SDS011;8009;50.070;8.232;2023-09-30T05:51:15;24.57;;;23.57;;
15816;SDS011;8009;50.070;8.232;2023-09-30T05:53:43;24.50;;;23.57;;
15816;SDS011;8009;50.070;8.232;2023-09-30T05:56:12;24.17;;;23.27;;
15816;SDS011;8009;50.070;8.232;2023-09-30T05:58:43;22.30;;;21.40;;
15816;SDS011;8009;50.070;8.232;2023-09-30T06:01:12;21.27;;;20.47;;
15816;SDS011;8009;50.070;8.232;2023-09-30T06:03:44;27.47;;;26.37;;
15816;SDS011;8009;50.070;8.232;2023-09-30T06:06:13;27.67;;;26.57;;
15816;SDS011;8009;50.070;8.232;2023-09-30T06:08:41;28.63;;;27.53;;
15816;SDS011;8009;50.070;8.232;2023-09-30T06:11:15;29.00;;;27.87;;
15816;SDS011;8009;50.070;8.232;2023-09-30T06:13:47;37.33;;;35.83;;
15816;SDS011;8009;50.070;8.232;2023-09-30T06:16:15;28.07;;;26.97;;
15816;SDS011;8009;50.070;8.232;2023-09-30T06:18:43;31.03;;;29.83;;
15816;SDS011;8009;50.070;8.232;2023-09-30T06:21:13;29.53;;;28.37;;
15816;SDS011;8009;50.070;8.232;2023-09-30T06:23:43;31.77;;;30.53;;
15816;SDS011;8009;50.070;8.232;2023-09-30T06:26:11;29.97;;;28.77;;
15816;SDS011;8009;50.070;8.232;2023-09-30T06:28:40;33.67;;;32.27;;
15816;SDS011;8009;50.070;8.232;2023-09-30T06:31:12;31.03;;;29.83;;
15816;SDS011;8009;50.070;8.232;2023-09-30T06:33:41;31.40;;;30.20;;
15816;SDS011;8009;50.070;8.232;2023-09-30T06:36:10;31.83;;;30.57;;
15816;SDS011;8009;50.070;8.232;2023-09-30T06:38:39;30.83;;;29.63;;
15816;SDS011;8009;50.070;8.232;2023-09-30T06:41:07;26.10;;;25.10;;
15816;SDS011;8009;50.070;8.232;2023-09-30T06:43:37;24.10;;;23.20;;
15816;SDS011;8009;50.070;8.232;2023-09-30T06:46:06;19.43;;;18.73;;
15816;SDS011;8009;50.070;8.232;2023-09-30T06:48:38;21.07;;;20.27;;
15816;SDS011;8009;50.070;8.232;2023-09-30T06:51:06;19.93;;;19.13;;
15816;SDS011;8009;50.070;8.232;2023-09-30T06:53:35;23.60;;;22.70;;
15816;SDS011;8009;50.070;8.232;2023-09-30T06:56:06;20.73;;;19.93;;
15816;SDS011;8009;50.070;8.232;2023-09-30T06:58:34;22.00;;;21.10;;
15816;SDS011;8009;50.070;8.232;2023-09-30T07:01:04;18.20;;;17.50;;
15816;SDS011;8009;50.070;8.232;2023-09-30T07:03:45;19.23;;;18.50;;
15816;SDS011;8009;50.070;8.232;2023-09-30T07:06:21;17.33;;;16.63;;
15816;SDS011;8009;50.070;8.232;2023-09-30T07:08:50;19.73;;;18.97;;
15816;SDS011;8009;50.070;8.232;2023-09-30T07:11:26;18.73;;;18.03;;
15816;SDS011;8009;50.070;8.232;2023-09-30T07:13:57;20.40;;;19.60;;
15816;SDS011;8009;50.070;8.232;2023-09-30T07:16:26;17.93;;;17.23;;
15816;SDS011;8009;50.070;8.232;2023-09-30T07:18:57;20.70;;;19.90;;
15816;SDS011;8009;50.070;8.232;2023-09-30T07:21:26;18.13;;;17.43;;
15816;SDS011;8009;50.070;8.232;2023-09-30T07:23:56;18.37;;;17.67;;
15816;SDS011;8009;50.070;8.232;2023-09-30T07:26:25;18.53;;;17.83;;
15816;SDS011;8009;50.070;8.232;2023-09-30T07:28:54;20.40;;;19.60;;
15816;SDS011;8009;50.070;8.232;2023-09-30T07:31:25;18.37;;;17.67;;
15816;SDS011;8009;50.070;8.232;2023-09-30T07:33:54;19.97;;;19.17;;
15816;SDS011;8009;50.070;8.232;2023-09-30T07:36:26;18.33;;;17.63;;
15816;SDS011;8009;50.070;8.232;2023-09-30T07:38:55;20.23;;;19.43;;
15816;SDS011;8009;50.070;8.232;2023-09-30T07:41:25;18.13;;;17.43;;
15816;SDS011;8009;50.070;8.232;2023-09-30T07:43:54;15.87;;;15.23;;
15816;SDS011;8009;50.070;8.232;2023-09-30T07:46:22;18.10;;;17.40;;
15816;SDS011;8009;50.070;8.232;2023-09-30T07:48:51;19.23;;;18.53;;
15816;SDS011;8009;50.070;8.232;2023-09-30T07:51:22;17.67;;;16.97;;
15816;SDS011;8009;50.070;8.232;2023-09-30T07:53:51;16.97;;;16.30;;
15816;SDS011;8009;50.070;8.232;2023-09-30T07:56:20;19.20;;;18.40;;
15816;SDS011;8009;50.070;8.232;2023-09-30T07:58:49;19.57;;;18.87;;
15816;SDS011;8009;50.070;8.232;2023-09-30T08:01:17;22.07;;;21.20;;
15816;SDS011;8009;50.070;8.232;2023-09-30T08:03:46;20.03;;;19.23;;
15816;SDS011;8009;50.070;8.232;2023-09-30T08:06:15;16.33;;;15.73;;
15816;SDS011;8009;50.070;8.232;2023-09-30T08:08:46;14.80;;;14.20;;
15816;SDS011;8009;50.070;8.232;2023-09-30T08:11:14;15.40;;;14.80;;
15816;SDS011;8009;50.070;8.232;2023-09-30T08:13:43;16.37;;;15.77;;
15816;SDS011;8009;50.070;8.232;2023-09-30T08:16:11;16.90;;;16.30;;
15816;SDS011;8009;50.070;8.232;2023-09-30T08:18:39;16.60;;;15.93;;
15816;SDS011;8009;50.070;8.232;2023-09-30T08:21:08;14.97;;;14.37;;
15816;SDS011;8009;50.070;8.232;2023-09-30T08:23:39;17.23;;;16.53;;
15816;SDS011;8009;50.070;8.232;2023-09-30T08:26:11;15.07;;;14.47;;
15816;SDS011;8009;50.070;8.232;2023-09-30T08:28:40;14.10;;;13.60;;
15816;SDS011;8009;50.070;8.232;2023-09-30T08:31:08;14.50;;;13.97;;
15816;SDS011;8009;50.070;8.232;2023-09-30T08:33:36;14.10;;;13.60;;
15816;SDS011;8009;50.070;8.232;2023-09-30T08:36:05;16.50;;;15.90;;
15816;SDS011;8009;50.070;8.232;2023-09-30T08:38:35;15.67;;;15.07;;
15816;SDS011;8009;50.070;8.232;2023-09-30T08:41:04;15.43;;;14.83;;
15816;SDS011;8009;50.070;8.232;2023-09-30T08:43:36;24.20;;;23.30;;
15816;SDS011;8009;50.070;8.232;2023-09-30T08:46:06;17.73;;;17.03;;
15816;SDS011;8009;50.070;8.232;2023-09-30T08:48:35;17.20;;;16.50;;
15816;SDS011;8009;50.070;8.232;2023-09-30T08:51:03;15.67;;;15.07;;
15816;SDS011;8009;50.070;8.232;2023-09-30T08:53:31;18.50;;;17.80;;
15816;SDS011;8009;50.070;8.232;2023-09-30T08:56:00;18.80;;;18.10;;
15816;SDS011;8009;50.070;8.232;2023-09-30T08:58:37;18.47;;;17.77;;
15816;SDS011;8009;50.070;8.232;2023-09-30T09:01:06;16.73;;;16.13;;
15816;SDS011;8009;50.070;8.232;2023-09-30T09:03:36;16.00;;;15.20;;
15816;SDS011;8009;50.070;8.232;2023-09-30T09:06:04;16.43;;;15.83;;
15816;SDS011;8009;50.070;8.232;2023-09-30T09:08:32;15.80;;;15.20;;
15816;SDS011;8009;50.070;8.232;2023-09-30T09:11:01;14.87;;;14.27;;
15816;SDS011;8009;50.070;8.232;2023-09-30T09:13:44;16.73;;;16.13;;
15816;SDS011;8009;50.070;8.232;2023-09-30T09:16:21;18.27;;;17.57;;
15816;SDS011;8009;50.070;8.232;2023-09-30T09:18:50;15.03;;;14.43;;
15816;SDS011;8009;50.070;8.232;2023-09-30T09:21:19;13.97;;;13.47;;
15816;SDS011;8009;50.070;8.232;2023-09-30T09:23:51;15.70;;;15.10;;
15816;SDS011;8009;50.070;8.232;2023-09-30T09:26:23;16.03;;;15.43;;
15816;SDS011;8009;50.070;8.232;2023-09-30T09:28:59;16.30;;;15.70;;
15816;SDS011;8009;50.070;8.232;2023-09-30T09:31:29;16.67;;;16.07;;
15816;SDS011;8009;50.070;8.232;2023-09-30T09:34:02;18.60;;;17.90;;
15816;SDS011;8009;50.070;8.232;2023-09-30T09:36:41;18.50;;;17.80;;
15816;SDS011;8009;50.070;8.232;2023-09-30T09:39:11;19.17;;;18.47;;
15816;SDS011;8009;50.070;8.232;2023-09-30T09:41:50;18.17;;;17.47;;
15816;SDS011;8009;50.070;8.232;2023-09-30T09:44:24;17.90;;;17.20;;
15816;SDS011;8009;50.070;8.232;2023-09-30T09:46:55;18.65;;;17.95;;
15816;SDS011;8009;50.070;8.232;2023-09-30T09:49:34;18.27;;;17.57;;
15816;SDS011;8009;50.070;8.232;2023-09-30T09:52:03;17.03;;;16.33;;
15816;SDS011;8009;50.070;8.232;2023-09-30T09:54:32;18.23;;;17.53;;
15816;SDS011;8009;50.070;8.232;2023-09-30T09:57:01;18.57;;;17.87;;
15816;SDS011;8009;50.070;8.232;2023-09-30T09:59:35;15.20;;;14.60;;
15816;SDS011;8009;50.070;8.232;2023-09-30T10:02:04;15.50;;;14.90;;
15816;SDS011;8009;50.070;8.232;2023-09-30T10:04:39;16.97;;;16.37;;
15816;SDS011;8009;50.070;8.232;2023-09-30T10:07:10;15.33;;;14.73;;
15816;SDS011;8009;50.070;8.232;2023-09-30T10:09:41;14.37;;;13.77;;
15816;SDS011;8009;50.070;8.232;2023-09-30T10:12:15;15.37;;;14.77;;
15816;SDS011;8009;50.070;8.232;2023-09-30T10:14:47;14.33;;;13.83;;
15816;SDS011;8009;50.070;8.232;2023-09-30T10:17:15;15.10;;;14.50;;
15816;SDS011;8009;50.070;8.232;2023-09-30T10:22:34;15.53;;;14.93;;
15816;SDS011;8009;50.070;8.232;2023-09-30T10:31:12;11.40;;;11.00;;
15816;SDS011;8009;50.070;8.232;2023-09-30T10:36:49;10.73;;;10.33;;
15816;SDS011;8009;50.070;8.232;2023-09-30T10:51:10;17.23;;;16.57;;
15816;SDS011;8009;50.070;8.232;2023-09-30T10:53:41;17.23;;;16.60;;
15816;SDS011;8009;50.070;8.232;2023-09-30T10:56:13;17.80;;;17.13;;
15816;SDS011;8009;50.070;8.232;2023-09-30T10:58:49;24.40;;;23.40;;
15816;SDS011;8009;50.070;8.232;2023-09-30T11:01:31;65.47;;;62.72;;
15816;SDS011;8009;50.070;8.232;2023-09-30T11:04:04;23.10;;;22.20;;
15816;SDS011;8009;50.070;8.232;2023-09-30T11:06:34;19.47;;;18.73;;
15816;SDS011;8009;50.070;8.232;2023-09-30T11:09:02;18.60;;;17.90;;
15816;SDS011;8009;50.070;8.232;2023-09-30T11:11:34;15.07;;;14.47;;
15816;SDS011;8009;50.070;8.232;2023-09-30T11:14:15;19.27;;;18.57;;
15816;SDS011;8009;50.070;8.232;2023-09-30T11:16:45;17.37;;;16.67;;
15816;SDS011;8009;50.070;8.232;2023-09-30T11:19:16;16.33;;;15.73;;
15816;SDS011;8009;50.070;8.232;2023-09-30T11:21:46;22.00;;;21.17;;
15816;SDS011;8009;50.070;8.232;2023-09-30T11:24:16;20.50;;;19.70;;
15816;SDS011;8009;50.070;8.232;2023-09-30T11:26:45;12.63;;;12.13;;
15816;SDS011;8009;50.070;8.232;2023-09-30T11:29:15;13.67;;;13.17;;
15816;SDS011;8009;50.070;8.232;2023-09-30T11:31:46;12.50;;;12.00;;
15816;SDS011;8009;50.070;8.232;2023-09-30T11:34:18;13.23;;;12.73;;
15816;SDS011;8009;50.070;8.232;2023-09-30T11:36:48;13.67;;;13.17;;
15816;SDS011;8009;50.070;8.232;2023-09-30T11:39:23;13.23;;;12.73;;
15816;SDS011;8009;50.070;8.232;2023-09-30T11:41:53;12.10;;;11.67;;
15816;SDS011;8009;50.070;8.232;2023-09-30T11:44:23;12.57;;;12.07;;
15816;SDS011;8009;50.070;8.232;2023-09-30T11:46:52;13.67;;;13.17;;
15816;SDS011;8009;50.070;8.232;2023-09-30T11:49:29;12.47;;;12.00;;
15816;SDS011;8009;50.070;8.232;2023-09-30T11:52:00;15.57;;;14.97;;
15816;SDS011;8009;50.070;8.232;2023-09-30T11:54:32;14.73;;;14.20;;
15816;SDS011;8009;50.070;8.232;2023-09-30T11:57:06;15.57;;;14.97;;
15816;SDS011;8009;50.070;8.232;2023-09-30T11:59:37;16.47;;;15.87;;
15816;SDS011;8009;50.070;8.232;2023-09-30T12:02:06;17.83;;;17.13;;
15816;SDS011;8009;50.070;8.232;2023-09-30T12:04:38;21.90;;;21.07;;
15816;SDS011;8009;50.070;8.232;2023-09-30T12:07:06;21.00;;;20.20;;
15816;SDS011;8009;50.070;8.232;2023-09-30T12:09:35;31.53;;;30.33;;
15816;SDS011;8009;50.070;8.232;2023-09-30T12:12:04;34.00;;;32.70;;
15816;SDS011;8009;50.070;8.232;2023-09-30T12:14:34;26.40;;;25.40;;
15816;SDS011;8009;50.070;8.232;2023-09-30T12:17:02;30.67;;;29.47;;
15816;SDS011;8009;50.070;8.232;2023-09-30T12:19:31;35.13;;;33.73;;
15816;SDS011;8009;50.070;8.232;2023-09-30T12:22:02;29.53;;;28.37;;
15816;SDS011;8009;50.070;8.232;2023-09-30T12:24:31;31.57;;;30.37;;
15816;SDS011;8009;50.070;8.232;2023-09-30T12:27:00;36.20;;;34.80;;
15816;SDS011;8009;50.070;8.232;2023-09-30T12:29:28;33.90;;;32.60;;
15816;SDS011;8009;50.070;8.232;2023-09-30T12:31:57;28.13;;;27.03;;
15816;SDS011;8009;50.070;8.232;2023-09-30T12:34:26;20.63;;;19.83;;
15816;SDS011;8009;50.070;8.232;2023-09-30T12:36:54;15.00;;;14.40;;
15816;SDS011;8009;50.070;8.232;2023-09-30T12:39:27;15.10;;;14.50;;
15816;SDS011;8009;50.070;8.232;2023-09-30T12:41:58;13.90;;;13.40;;
15816;SDS011;8009;50.070;8.232;2023-09-30T12:44:26;12.50;;;12.00;;
15816;SDS011;8009;50.070;8.232;2023-09-30T12:46:54;14.13;;;13.63;;
15816;SDS011;8009;50.070;8.232;2023-09-30T12:49:23;13.97;;;13.47;;
15816;SDS011;8009;50.070;8.232;2023-09-30T12:51:51;13.20;;;12.70;;
15816;SDS011;8009;50.070;8.232;2023-09-30T12:54:21;13.43;;;12.93;;
15816;SDS011;8009;50.070;8.232;2023-09-30T12:56:52;14.37;;;13.87;;
15816;SDS011;8009;50.070;8.232;2023-09-30T12:59:21;14.60;;;14.10;;
15816;SDS011;8009;50.070;8.232;2023-09-30T13:01:50;14.07;;;13.47;;
15816;SDS011;8009;50.070;8.232;2023-09-30T13:04:19;12.73;;;12.23;;
15816;SDS011;8009;50.070;8.232;2023-09-30T13:06:48;13.50;;;13.00;;
15816;SDS011;8009;50.070;8.232;2023-09-30T13:09:17;13.57;;;13.07;;
15816;SDS011;8009;50.070;8.232;2023-09-30T13:11:45;13.70;;;13.20;;
15816;SDS011;8009;50.070;8.232;2023-09-30T13:14:16;15.17;;;14.57;;
15816;SDS011;8009;50.070;8.232;2023-09-30T13:16:45;13.77;;;13.27;;
15816;SDS011;8009;50.070;8.232;2023-09-30T13:19:13;15.33;;;14.73;;
15816;SDS011;8009;50.070;8.232;2023-09-30T13:21:46;15.03;;;14.43;;
15816;SDS011;8009;50.070;8.232;2023-09-30T13:24:14;13.73;;;13.23;;
15816;SDS011;8009;50.070;8.232;2023-09-30T13:26:43;14.23;;;13.73;;
15816;SDS011;8009;50.070;8.232;2023-09-30T13:29:11;16.20;;;15.60;;
15816;SDS011;8009;50.070;8.232;2023-09-30T13:31:44;17.73;;;17.03;;
15816;SDS011;8009;50.070;8.232;2023-09-30T13:34:12;15.83;;;15.23;;
15816;SDS011;8009;50.070;8.232;2023-09-30T13:36:41;16.17;;;15.57;;
15816;SDS011;8009;50.070;8.232;2023-09-30T13:39:10;13.00;;;12.50;;
15816;SDS011;8009;50.070;8.232;2023-09-30T13:41:42;16.13;;;15.53;;
15816;SDS011;8009;50.070;8.232;2023-09-30T13:44:12;15.20;;;14.60;;
15816;SDS011;8009;50.070;8.232;2023-09-30T13:46:41;15.57;;;14.97;;
15816;SDS011;8009;50.070;8.232;2023-09-30T13:49:13;17.47;;;16.77;;
15816;SDS011;8009;50.070;8.232;2023-09-30T13:51:42;14.97;;;14.43;;
15816;SDS011;8009;50.070;8.232;2023-09-30T13:54:11;13.07;;;12.57;;
15816;SDS011;8009;50.070;8.232;2023-09-30T13:56:40;12.93;;;12.43;;
15816;SDS011;8009;50.070;8.232;2023-09-30T13:59:09;12.17;;;11.73;;
15816;SDS011;8009;50.070;8.232;2023-09-30T14:01:38;16.17;;;15.57;;
15816;SDS011;8009;50.070;8.232;2023-09-30T14:04:09;15.13;;;14.53;;
15816;SDS011;8009;50.070;8.232;2023-09-30T14:06:37;12.83;;;12.33;;
15816;SDS011;8009;50.070;8.232;2023-09-30T14:09:06;15.07;;;14.48;;
15816;SDS011;8009;50.070;8.232;2023-09-30T14:11:39;13.13;;;12.63;;
15816;SDS011;8009;50.070;8.232;2023-09-30T14:14:09;11.53;;;11.13;;
15816;SDS011;8009;50.070;8.232;2023-09-30T14:16:37;11.37;;;10.97;;
15816;SDS011;8009;50.070;8.232;2023-09-30T14:19:06;14.37;;;13.87;;
15816;SDS011;8009;50.070;8.232;2023-09-30T14:21:38;13.80;;;13.30;;
15816;SDS011;8009;50.070;8.232;2023-09-30T14:24:07;13.43;;;12.93;;
15816;SDS011;8009;50.070;8.232;2023-09-30T14:26:36;12.83;;;12.33;;
15816;SDS011;8009;50.070;8.232;2023-09-30T14:29:04;12.50;;;12.00;;
15816;SDS011;8009;50.070;8.232;2023-09-30T14:31:32;13.13;;;12.63;;
15816;SDS011;8009;50.070;8.232;2023-09-30T14:34:01;12.90;;;12.40;;
15816;SDS011;8009;50.070;8.232;2023-09-30T14:36:32;11.50;;;11.10;;
15816;SDS011;8009;50.070;8.232;2023-09-30T14:39:01;21.42;;;20.52;;
15816;SDS011;8009;50.070;8.232;2023-09-30T14:41:30;15.00;;;14.43;;
15816;SDS011;8009;50.070;8.232;2023-09-30T14:44:00;12.33;;;11.90;;
15816;SDS011;8009;50.070;8.232;2023-09-30T14:46:29;12.43;;;11.93;;
15816;SDS011;8009;50.070;8.232;2023-09-30T14:48:57;12.80;;;12.30;;
15816;SDS011;8009;50.070;8.232;2023-09-30T14:51:25;12.17;;;11.73;;
15816;SDS011;8009;50.070;8.232;2023-09-30T14:53:56;12.10;;;11.70;;
15816;SDS011;8009;50.070;8.232;2023-09-30T14:56:25;11.30;;;10.90;;
15816;SDS011;8009;50.070;8.232;2023-09-30T14:58:54;12.77;;;12.27;;
15816;SDS011;8009;50.070;8.232;2023-09-30T15:01:22;11.63;;;11.23;;
15816;SDS011;8009;50.070;8.232;2023-09-30T15:03:51;12.87;;;12.37;;
15816;SDS011;8009;50.070;8.232;2023-09-30T15:06:19;12.47;;;11.97;;
15816;SDS011;8009;50.070;8.232;2023-09-30T15:08:49;11.87;;;11.47;;
15816;SDS011;8009;50.070;8.232;2023-09-30T15:11:20;13.07;;;12.57;;